Terminal Aerodrome Forecast
Issued by NWS La Crosse, WI

Home | Current Version | Previous Version | Text Only | Print | Product List | Glossary On
Versions: 1 2 3 4 5 6 7 8 9 10 11 12 13 14 15 16 17 18 19 20 21 22 23 24
000
FTUS43 KARX 242330
TAFLSE
TAF
KLSE 242330Z 2500/2524 18005KT P6SM BKN015
     FM250200 20004KT P6SM SCT020 BKN250
     FM250800 30006KT P6SM SKC
     FM251700 30011G19KT P6SM SKC=

USA.gov is the U.S. government's official web portal to all federal, state and local government web resources and services.